Time;durP1;ratioP1;P1;durP2;ratioP2;P2;SDS_P1;SDS_P2;PMS_P1;PMS_P2;Temp;Humidity;BMP_temperature;BMP_pressure;BME280_temperature;BME280_humidity;BME280_pressure;Samples;Min_cycle;Max_cycle;Signal;HPM_P1;HPM_P2
2022/08/27 00:02:07;;;;;;;9.52;2.60;;;18.50;99.90;;;;;;4988443;28;20134;-62
2022/08/27 00:04:33;;;;;;;8.68;2.65;;;18.30;99.90;;;;;;4987314;28;20437;-62
2022/08/27 00:07:00;;;;;;;8.07;2.40;;;18.30;99.90;;;;;;4986052;28;20097;-59
2022/08/27 00:09:27;;;;;;;9.05;2.38;;;18.20;99.90;;;;;;4985681;28;20026;-61
2022/08/27 00:11:54;;;;;;;8.52;2.40;;;18.30;99.90;;;;;;4984244;28;20042;-60
2022/08/27 00:14:21;;;;;;;7.40;2.40;;;18.20;99.90;;;;;;4986457;28;20034;-60
2022/08/27 00:16:46;;;;;;;9.18;2.53;;;17.90;99.90;;;;;;4990651;28;20036;-62
2022/08/27 00:19:12;;;;;;;10.48;2.95;;;17.90;99.90;;;;;;4987429;28;20112;-61
2022/08/27 00:21:37;;;;;;;6.55;2.47;;;17.90;99.90;;;;;;4988271;28;20026;-60
2022/08/27 00:24:03;;;;;;;7.93;2.35;;;18.10;99.90;;;;;;4987782;28;20044;-62
2022/08/27 00:26:29;;;;;;;15.77;3.50;;;18.10;99.90;;;;;;4985759;28;20037;-59
2022/08/27 00:28:54;;;;;;;11.30;2.25;;;17.90;99.90;;;;;;4975830;28;20053;-61
2022/08/27 00:31:20;;;;;;;12.65;2.67;;;17.90;99.90;;;;;;4984209;28;20026;-62
2022/08/27 00:33:46;;;;;;;8.88;2.45;;;18.00;99.90;;;;;;4990973;28;20030;-60
2022/08/27 00:36:12;;;;;;;11.88;1.90;;;18.10;99.90;;;;;;4988759;28;20080;-61
2022/08/27 00:38:39;;;;;;;9.75;2.30;;;18.30;99.90;;;;;;4976230;28;20397;-61
2022/08/27 00:41:08;;;;;;;7.15;2.22;;;18.30;99.90;;;;;;4983446;28;20141;-61
2022/08/27 00:44:04;;;;;;;11.20;2.58;;;18.20;99.90;;;;;;4985409;28;20564;-57
2022/08/27 00:47:01;;;;;;;9.55;2.20;;;18.20;99.90;;;;;;4988226;28;20026;-61
2022/08/27 00:49:50;;;;;;;9.10;2.22;;;18.00;99.90;;;;;;4988360;28;20082;-62
2022/08/27 00:52:30;;;;;;;9.55;2.45;;;18.20;99.90;;;;;;4985250;28;20023;-58
2022/08/27 00:55:02;;;;;;;9.57;2.08;;;18.20;99.90;;;;;;4986757;28;20076;-61
2022/08/27 00:57:32;;;;;;;9.85;2.10;;;18.10;99.90;;;;;;4984316;28;20376;-60
2022/08/27 00:59:58;;;;;;;10.32;2.20;;;18.20;99.90;;;;;;4991770;28;20045;-61
2022/08/27 01:02:28;;;;;;;9.00;1.77;;;18.30;99.90;;;;;;4990519;28;20077;-62
2022/08/27 01:05:06;;;;;;;8.75;2.20;;;18.30;99.90;;;;;;4986610;28;20023;-62
2022/08/27 01:07:39;;;;;;;7.47;1.60;;;18.30;99.90;;;;;;4991513;28;20098;-62
2022/08/27 01:10:10;;;;;;;6.80;1.50;;;18.10;99.90;;;;;;4989322;28;20122;-61
2022/08/27 01:12:39;;;;;;;8.45;1.80;;;18.30;99.90;;;;;;4986283;28;20133;-58
2022/08/27 01:15:08;;;;;;;9.95;2.00;;;18.40;99.90;;;;;;4985773;28;20061;-61
2022/08/27 01:17:36;;;;;;;7.90;1.77;;;18.30;99.90;;;;;;4986240;28;20646;-61
2022/08/27 01:20:08;;;;;;;8.65;2.10;;;17.90;99.90;;;;;;4981360;28;20486;-61
2022/08/27 01:23:00;;;;;;;5.90;1.92;;;18.30;99.90;;;;;;4985721;28;20037;-60
2022/08/27 01:25:27;;;;;;;9.38;1.88;;;18.30;99.90;;;;;;4984989;28;20042;-60
2022/08/27 01:27:57;;;;;;;9.38;1.88;;;18.40;99.90;;;;;;4984097;28;20557;-60
2022/08/27 01:30:23;;;;;;;10.82;1.83;;;18.50;99.90;;;;;;4984978;28;20422;-61
2022/08/27 01:32:50;;;;;;;10.80;2.20;;;18.30;99.90;;;;;;4985007;28;20030;-61
2022/08/27 01:35:16;;;;;;;8.13;1.70;;;18.50;99.90;;;;;;4983793;28;20034;-61
2022/08/27 01:37:45;;;;;;;8.68;1.92;;;18.40;99.90;;;;;;4978885;28;20521;-62
2022/08/27 01:40:11;;;;;;;6.30;1.65;;;18.60;99.90;;;;;;4983335;28;20031;-61
2022/08/27 01:42:40;;;;;;;10.65;2.00;;;18.60;99.90;;;;;;4984527;28;20080;-60
2022/08/27 01:45:16;;;;;;;7.60;1.90;;;18.60;99.90;;;;;;4982976;28;20031;-60
2022/08/27 01:47:42;;;;;;;9.02;2.20;;;18.60;99.90;;;;;;4988454;28;20129;-59
2022/08/27 01:50:16;;;;;;;9.35;2.35;;;18.30;99.90;;;;;;4983885;28;20106;-62
2022/08/27 01:52:42;;;;;;;8.32;1.83;;;18.20;99.90;;;;;;4984696;28;20014;-61
2022/08/27 01:55:11;;;;;;;4.95;1.70;;;18.30;99.90;;;;;;4988006;28;20093;-62
2022/08/27 01:57:38;;;;;;;7.57;1.95;;;18.40;99.90;;;;;;4981921;28;20037;-58
2022/08/27 02:00:13;;;;;;;5.85;1.83;;;18.60;99.90;;;;;;4988261;28;20513;-61
2022/08/27 02:02:40;;;;;;;6.32;1.90;;;18.40;99.90;;;;;;4984185;28;20045;-59
2022/08/27 02:05:06;;;;;;;8.40;1.92;;;18.30;99.90;;;;;;4984930;28;20030;-57
2022/08/27 02:07:36;;;;;;;4.80;1.75;;;18.40;99.90;;;;;;4984430;28;20027;-59
2022/08/27 02:10:02;;;;;;;7.80;1.65;;;18.40;99.90;;;;;;5001245;28;20549;-59
2022/08/27 02:12:28;;;;;;;4.30;1.75;;;18.30;99.90;;;;;;4982435;28;20422;-61
2022/08/27 02:14:53;;;;;;;8.63;2.20;;;18.30;99.90;;;;;;4983125;28;20019;-62
2022/08/27 02:17:19;;;;;;;10.63;1.90;;;18.40;99.90;;;;;;4984480;28;20422;-59
2022/08/27 02:19:44;;;;;;;5.88;1.60;;;18.50;99.90;;;;;;4986054;28;20096;-58
2022/08/27 02:22:13;;;;;;;5.18;1.90;;;18.20;99.90;;;;;;4988897;28;20366;-61
2022/08/27 02:24:40;;;;;;;12.13;1.92;;;18.30;99.90;;;;;;4984238;28;20553;-60
2022/08/27 02:27:05;;;;;;;8.57;1.80;;;18.50;99.90;;;;;;4982556;28;20036;-58
2022/08/27 02:29:33;;;;;;;10.57;1.80;;;18.50;99.90;;;;;;4983026;28;20121;-61
2022/08/27 02:32:00;;;;;;;8.65;1.92;;;18.40;99.90;;;;;;4983018;28;20040;-58
2022/08/27 02:34:26;;;;;;;6.00;1.65;;;18.40;99.90;;;;;;4983840;28;20088;-59
2022/08/27 02:36:52;;;;;;;7.10;1.80;;;18.40;99.90;;;;;;4984863;28;20023;-60
2022/08/27 02:39:19;;;;;;;7.78;1.98;;;18.40;99.90;;;;;;4977156;28;20080;-60
2022/08/27 02:41:44;;;;;;;8.05;1.70;;;18.40;99.90;;;;;;4979056;28;20031;-62
2022/08/27 02:44:10;;;;;;;10.60;2.25;;;18.60;99.90;;;;;;4984259;28;20080;-60
2022/08/27 02:46:37;;;;;;;7.15;2.20;;;18.40;99.90;;;;;;4985613;28;20114;-61
2022/08/27 02:49:03;;;;;;;8.43;1.80;;;18.50;99.90;;;;;;4985261;28;20123;-61
2022/08/27 02:51:29;;;;;;;9.40;2.10;;;18.20;99.90;;;;;;4982048;28;20165;-58
2022/08/27 02:53:54;;;;;;;6.47;1.90;;;18.30;99.90;;;;;;4983192;28;20018;-62
2022/08/27 02:56:20;;;;;;;6.97;1.77;;;18.00;99.90;;;;;;4984266;28;20053;-62
2022/08/27 02:58:46;;;;;;;9.48;2.42;;;17.70;99.90;;;;;;4984336;28;20141;-61
2022/08/27 03:01:11;;;;;;;13.55;2.20;;;18.00;99.90;;;;;;4983591;28;20022;-60
2022/08/27 03:03:37;;;;;;;7.57;2.42;;;17.70;99.90;;;;;;4978552;28;20031;-61
2022/08/27 03:06:03;;;;;;;9.45;2.30;;;17.60;99.90;;;;;;4986387;28;20022;-62
2022/08/27 03:08:28;;;;;;;10.23;2.40;;;17.60;99.90;;;;;;4984546;28;20027;-61
2022/08/27 03:10:55;;;;;;;8.40;2.20;;;17.60;99.90;;;;;;4979767;28;20022;-60
2022/08/27 03:13:22;;;;;;;10.75;2.50;;;17.70;99.90;;;;;;4981572;28;20034;-61
2022/08/27 03:15:48;;;;;;;8.10;2.33;;;17.70;99.90;;;;;;4983420;28;20034;-62
2022/08/27 03:18:17;;;;;;;9.73;2.45;;;17.70;99.90;;;;;;4984378;28;20053;-61
2022/08/27 03:20:45;;;;;;;7.60;2.55;;;17.80;99.90;;;;;;4984410;28;20058;-62
2022/08/27 03:23:13;;;;;;;9.48;2.90;;;17.60;99.90;;;;;;4986706;28;20034;-62
2022/08/27 03:25:43;;;;;;;12.30;2.60;;;17.60;99.90;;;;;;4984493;28;20042;-62
2022/08/27 03:28:09;;;;;;;11.18;3.40;;;17.60;99.90;;;;;;4979488;28;20034;-62
2022/08/27 03:30:35;;;;;;;10.63;3.03;;;17.70;99.90;;;;;;4981859;28;20037;-62
2022/08/27 03:33:00;;;;;;;11.20;2.10;;;17.80;99.90;;;;;;4984499;28;20034;-61
2022/08/27 03:35:26;;;;;;;9.25;2.65;;;17.60;99.90;;;;;;4982205;28;20061;-61
2022/08/27 03:37:51;;;;;;;5.82;2.40;;;17.70;99.90;;;;;;4978715;28;20058;-62
2022/08/27 03:40:18;;;;;;;12.85;2.95;;;17.60;99.90;;;;;;4982137;28;20478;-59
2022/08/27 03:42:44;;;;;;;11.55;2.50;;;17.60;99.90;;;;;;4982870;28;20720;-61
2022/08/27 03:45:10;;;;;;;9.90;2.63;;;17.80;99.90;;;;;;4981386;28;20073;-61
2022/08/27 03:47:36;;;;;;;10.60;2.58;;;17.70;99.90;;;;;;4986389;28;20026;-59
2022/08/27 03:50:04;;;;;;;8.52;2.30;;;17.70;99.90;;;;;;4986198;28;20034;-61
2022/08/27 03:52:33;;;;;;;9.68;2.08;;;17.50;99.90;;;;;;4981670;28;20026;-61
2022/08/27 03:55:00;;;;;;;6.80;2.20;;;17.80;99.90;;;;;;4983037;28;20026;-59
2022/08/27 03:57:26;;;;;;;10.38;2.42;;;17.90;99.90;;;;;;4980673;28;20399;-62
2022/08/27 03:59:51;;;;;;;7.55;2.28;;;17.90;99.90;;;;;;4990712;28;20089;-62
2022/08/27 04:02:17;;;;;;;8.15;2.30;;;17.70;99.90;;;;;;4986133;28;20084;-59
2022/08/27 04:04:43;;;;;;;6.97;2.35;;;18.00;99.90;;;;;;4986978;28;20045;-60
2022/08/27 04:07:09;;;;;;;9.95;2.40;;;17.80;99.90;;;;;;4983385;28;20655;-62
2022/08/27 04:09:35;;;;;;;8.27;2.63;;;17.90;99.90;;;;;;4987020;28;20034;-61
2022/08/27 04:12:00;;;;;;;10.35;2.95;;;17.80;99.90;;;;;;5001037;28;20060;-61
2022/08/27 04:14:26;;;;;;;8.48;2.53;;;17.90;99.90;;;;;;4986104;28;20088;-58
2022/08/27 04:16:53;;;;;;;4.80;2.08;;;17.90;99.90;;;;;;4986898;28;20046;-62
2022/08/27 04:19:18;;;;;;;5.32;2.47;;;17.60;99.90;;;;;;4984346;28;20045;-58
2022/08/27 04:21:44;;;;;;;8.63;2.50;;;17.80;99.90;;;;;;4985172;28;20026;-59
2022/08/27 04:24:10;;;;;;;5.40;2.47;;;18.10;99.90;;;;;;4984988;28;20462;-60
2022/08/27 04:26:39;;;;;;;6.18;2.15;;;17.90;99.90;;;;;;4982790;28;20470;-59
2022/08/27 04:29:05;;;;;;;8.43;2.33;;;18.00;99.90;;;;;;4987067;28;20073;-60
2022/08/27 04:31:30;;;;;;;8.20;2.22;;;18.00;99.90;;;;;;4985137;28;20038;-59
2022/08/27 04:33:56;;;;;;;9.43;2.20;;;18.10;99.90;;;;;;4983890;28;20111;-59
2022/08/27 04:36:22;;;;;;;7.80;1.90;;;18.00;99.90;;;;;;4979760;28;20041;-62
2022/08/27 04:38:48;;;;;;;5.30;2.08;;;17.80;99.90;;;;;;4979769;28;20030;-61
2022/08/27 04:41:25;;;;;;;5.95;1.98;;;17.90;99.90;;;;;;4986801;28;20034;-62
2022/08/27 04:44:01;;;;;;;8.45;1.98;;;18.00;99.90;;;;;;4981150;28;20711;-62
2022/08/27 04:46:32;;;;;;;6.05;1.83;;;18.10;99.90;;;;;;4984786;28;20030;-61
2022/08/27 04:49:00;;;;;;;5.35;1.95;;;18.00;99.90;;;;;;4987224;28;20065;-62
2022/08/27 04:51:27;;;;;;;4.72;1.88;;;17.90;99.90;;;;;;4985418;28;20030;-60
2022/08/27 04:53:53;;;;;;;6.25;2.00;;;18.10;99.90;;;;;;4987357;28;20026;-61
2022/08/27 04:56:21;;;;;;;6.05;2.05;;;18.20;99.90;;;;;;4983312;28;20038;-61
2022/08/27 04:58:48;;;;;;;9.07;1.98;;;18.10;99.90;;;;;;4987254;28;20034;-62
2022/08/27 05:01:31;;;;;;;10.02;2.35;;;18.00;99.90;;;;;;4985577;28;20062;-61
2022/08/27 05:03:57;;;;;;;11.15;2.30;;;17.90;99.90;;;;;;4989573;28;20042;-61
2022/08/27 05:06:24;;;;;;;8.25;2.20;;;18.00;99.90;;;;;;4983183;28;20390;-60
2022/08/27 05:08:51;;;;;;;7.43;1.92;;;18.10;99.90;;;;;;4986290;28;20390;-59
2022/08/27 05:11:18;;;;;;;8.82;2.10;;;18.20;99.90;;;;;;4983796;28;20065;-59
2022/08/27 05:13:44;;;;;;;5.15;1.88;;;18.20;99.90;;;;;;4986355;28;20398;-60
2022/08/27 05:16:12;;;;;;;5.68;1.98;;;18.10;99.90;;;;;;4984895;28;20042;-61
2022/08/27 05:18:39;;;;;;;8.25;1.73;;;18.10;99.90;;;;;;4986344;28;20145;-60
2022/08/27 05:21:06;;;;;;;8.40;2.00;;;18.90;99.90;;;;;;4985019;28;20030;-59
2022/08/27 05:23:33;;;;;;;7.95;2.30;;;18.20;99.90;;;;;;4988264;28;20334;-61
2022/08/27 05:25:59;;;;;;;9.43;2.20;;;18.30;99.90;;;;;;4987985;28;20041;-61
2022/08/27 05:28:27;;;;;;;8.05;2.10;;;18.10;99.90;;;;;;4990866;28;20481;-61
2022/08/27 05:30:55;;;;;;;10.20;2.20;;;18.60;99.90;;;;;;4985938;28;20514;-60
2022/08/27 05:33:23;;;;;;;8.00;2.00;;;18.30;99.90;;;;;;4984972;28;20037;-59
2022/08/27 05:35:56;;;;;;;9.75;2.10;;;18.30;99.90;;;;;;4988115;28;20034;-61
2022/08/27 05:38:26;;;;;;;5.95;1.85;;;18.30;99.90;;;;;;4977743;28;20038;-59
2022/08/27 05:41:05;;;;;;;5.38;1.88;;;18.30;99.90;;;;;;4981506;28;20031;-62
2022/08/27 05:43:31;;;;;;;7.93;1.88;;;19.20;99.90;;;;;;4988670;28;20306;-62
2022/08/27 05:45:57;;;;;;;8.43;2.10;;;18.40;99.90;;;;;;4982929;28;20470;-60
2022/08/27 05:48:23;;;;;;;10.27;1.80;;;18.40;99.90;;;;;;4985175;28;20037;-61
2022/08/27 05:50:48;;;;;;;7.18;1.85;;;18.40;99.90;;;;;;4986308;28;20030;-62
2022/08/27 05:53:14;;;;;;;5.07;1.70;;;18.40;99.90;;;;;;4991303;28;20022;-61
2022/08/27 05:55:43;;;;;;;5.10;1.90;;;18.40;99.90;;;;;;4986533;28;20030;-61
2022/08/27 06:01:03;;;;;;;6.78;1.83;;;18.40;99.90;;;;;;4984245;28;20957;-62
2022/08/27 06:01:04;;;;;;;5.10;1.90;;;18.40;99.90;;;;;;4985146;28;20034;-61
2022/08/27 06:03:34;;;;;;;5.90;1.83;;;18.30;99.90;;;;;;4983717;28;20113;-60
2022/08/27 06:06:02;;;;;;;6.57;2.13;;;18.30;99.90;;;;;;4983691;28;20042;-61
2022/08/27 06:08:27;;;;;;;8.82;1.80;;;18.30;99.90;;;;;;4983323;28;20394;-61
2022/08/27 06:10:53;;;;;;;8.02;2.25;;;18.40;99.90;;;;;;4990874;28;20025;-61
2022/08/27 06:13:19;;;;;;;6.28;1.80;;;18.70;99.90;;;;;;4984089;28;20094;-62
2022/08/27 06:15:45;;;;;;;7.97;2.05;;;18.50;99.90;;;;;;4983653;28;20133;-62
2022/08/27 06:18:12;;;;;;;6.05;2.03;;;18.40;99.90;;;;;;4983703;28;20498;-61
2022/08/27 06:20:38;;;;;;;8.02;2.33;;;18.60;99.90;;;;;;4980851;28;20172;-63
2022/08/27 06:23:04;;;;;;;6.70;2.20;;;18.10;99.90;;;;;;4984451;28;20050;-60
2022/08/27 06:25:31;;;;;;;6.50;1.80;;;18.50;99.90;;;;;;4983626;28;20050;-59
2022/08/27 06:27:57;;;;;;;8.32;2.00;;;18.10;99.90;;;;;;4983268;28;20045;-60
2022/08/27 06:30:23;;;;;;;6.63;2.03;;;18.50;99.90;;;;;;4984835;28;20022;-62
2022/08/27 06:32:50;;;;;;;5.95;1.92;;;18.40;99.90;;;;;;4983816;28;20042;-59
2022/08/27 06:35:17;;;;;;;9.73;2.15;;;18.50;99.90;;;;;;4984388;28;20026;-61
2022/08/27 06:37:42;;;;;;;6.70;2.08;;;18.60;99.90;;;;;;4982276;28;20058;-62
2022/08/27 06:40:09;;;;;;;6.28;1.80;;;18.60;99.90;;;;;;4985316;28;20077;-61
2022/08/27 06:42:35;;;;;;;6.68;1.92;;;18.40;99.90;;;;;;4983613;28;20061;-61
2022/08/27 06:45:01;;;;;;;6.55;2.20;;;18.20;99.90;;;;;;4985392;28;20138;-62
2022/08/27 06:47:29;;;;;;;7.13;2.00;;;18.10;99.90;;;;;;4984225;28;20066;-60
2022/08/27 06:49:56;;;;;;;5.43;1.90;;;18.30;99.90;;;;;;4981980;28;20026;-58
2022/08/27 06:52:22;;;;;;;6.28;2.03;;;18.30;99.90;;;;;;4982873;28;20034;-57
2022/08/27 06:54:49;;;;;;;5.68;2.10;;;18.20;99.90;;;;;;4983454;28;20030;-59
2022/08/27 06:57:15;;;;;;;4.90;2.08;;;18.30;99.90;;;;;;4978113;28;20042;-59
2022/08/27 06:59:41;;;;;;;8.50;2.13;;;18.30;99.90;;;;;;4984726;28;20140;-62
2022/08/27 07:02:07;;;;;;;5.18;1.80;;;18.10;99.90;;;;;;4983268;28;20430;-60
2022/08/27 07:04:33;;;;;;;6.93;1.77;;;18.20;99.90;;;;;;4982459;28;20482;-58
2022/08/27 07:07:02;;;;;;;6.65;1.98;;;18.40;99.90;;;;;;4981853;28;20041;-63
2022/08/27 07:09:30;;;;;;;7.03;1.98;;;18.40;99.90;;;;;;4981220;28;20046;-59
2022/08/27 07:11:57;;;;;;;5.07;1.60;;;18.40;99.90;;;;;;4979639;28;20022;-61
2022/08/27 07:14:23;;;;;;;3.88;1.70;;;18.50;99.90;;;;;;4981268;28;20018;-59
2022/08/27 07:16:50;;;;;;;6.70;2.00;;;18.50;99.90;;;;;;4978621;28;20030;-62
2022/08/27 07:19:16;;;;;;;6.15;1.90;;;18.50;99.90;;;;;;4980080;28;20402;-61
2022/08/27 07:21:41;;;;;;;5.65;1.58;;;18.60;99.90;;;;;;4979921;28;20106;-60
2022/08/27 07:24:08;;;;;;;5.22;1.92;;;18.50;99.90;;;;;;4980962;28;20104;-62
2022/08/27 07:26:37;;;;;;;4.95;1.70;;;18.50;99.90;;;;;;4980117;28;20042;-61
2022/08/27 07:29:05;;;;;;;9.38;2.20;;;18.50;99.90;;;;;;4980366;28;20375;-62
2022/08/27 07:31:30;;;;;;;4.50;1.58;;;18.30;99.90;;;;;;4976992;28;20061;-61
2022/08/27 07:33:56;;;;;;;3.53;1.60;;;18.40;99.90;;;;;;4987240;28;20026;-61
2022/08/27 07:36:26;;;;;;;4.70;1.60;;;18.60;99.90;;;;;;4981822;28;20057;-61
2022/08/27 07:38:52;;;;;;;6.15;1.67;;;18.60;99.90;;;;;;4980448;28;20476;-62
2022/08/27 07:41:17;;;;;;;5.45;1.67;;;18.70;99.90;;;;;;4984537;28;20030;-61
2022/08/27 07:46:27;;;;;;;6.03;1.63;;;18.40;99.90;;;;;;4983197;28;20118;-62
2022/08/27 07:48:55;;;;;;;7.13;1.60;;;18.40;99.90;;;;;;4987943;28;20105;-61
2022/08/27 07:51:22;;;;;;;6.03;1.95;;;18.50;99.90;;;;;;4984760;28;20339;-60
2022/08/27 07:53:48;;;;;;;7.65;2.25;;;18.70;99.90;;;;;;4984385;28;20030;-63
2022/08/27 07:56:14;;;;;;;8.27;2.25;;;18.50;99.90;;;;;;4982857;28;20034;-62
2022/08/27 07:58:40;;;;;;;6.35;2.08;;;18.50;99.90;;;;;;4985305;28;20042;-62
2022/08/27 08:01:06;;;;;;;6.15;1.80;;;18.60;99.90;;;;;;4981259;28;20034;-62
2022/08/27 08:03:33;;;;;;;6.43;1.95;;;18.60;99.90;;;;;;4987154;28;20122;-63
2022/08/27 08:06:07;;;;;;;4.07;1.70;;;18.70;99.90;;;;;;4989253;28;20326;-60
2022/08/27 08:08:34;;;;;;;8.93;2.15;;;18.80;99.90;;;;;;4984479;28;20109;-62
2022/08/27 08:11:01;;;;;;;8.60;1.98;;;18.80;99.90;;;;;;4986566;28;20062;-62
2022/08/27 08:13:27;;;;;;;3.30;1.85;;;18.80;99.90;;;;;;4983193;28;20421;-61
2022/08/27 08:15:52;;;;;;;8.38;1.98;;;18.70;99.90;;;;;;4983209;28;20026;-62
2022/08/27 08:18:18;;;;;;;8.13;2.38;;;18.90;99.90;;;;;;4980544;28;20049;-60
2022/08/27 08:20:44;;;;;;;7.57;2.13;;;18.90;99.90;;;;;;4983288;28;20498;-62
2022/08/27 08:23:09;;;;;;;11.48;2.72;;;18.80;99.90;;;;;;4991506;28;20033;-62
2022/08/27 08:25:35;;;;;;;5.93;1.90;;;19.00;99.90;;;;;;4982150;28;20030;-60
2022/08/27 08:28:00;;;;;;;6.78;1.83;;;19.20;99.90;;;;;;4986698;28;20057;-61
2022/08/27 08:30:27;;;;;;;7.18;1.83;;;19.40;99.90;;;;;;4984069;28;20085;-63
2022/08/27 08:32:53;;;;;;;7.18;2.17;;;19.20;99.90;;;;;;4990954;28;20485;-62
2022/08/27 08:35:19;;;;;;;8.45;2.35;;;19.20;99.90;;;;;;4986844;28;20114;-61
2022/08/27 08:37:45;;;;;;;9.50;2.33;;;19.20;99.90;;;;;;4975158;28;20218;-63
2022/08/27 08:40:32;;;;;;;7.57;3.60;;;19.20;99.90;;;;;;4986628;28;20742;-62
2022/08/27 08:42:59;;;;;;;8.60;2.38;;;19.10;99.90;;;;;;4979911;28;20036;-61
2022/08/27 08:45:33;;;;;;;7.57;2.13;;;19.20;99.90;;;;;;4982886;28;20509;-61
2022/08/27 08:48:10;;;;;;;7.13;2.38;;;19.10;99.90;;;;;;4987052;28;20449;-62
2022/08/27 08:51:01;;;;;;;10.77;2.00;;;19.10;99.90;;;;;;4986544;28;20022;-64
2022/08/27 08:53:38;;;;;;;7.03;2.30;;;19.20;99.90;;;;;;4999413;28;20469;-64
2022/08/27 08:56:09;;;;;;;12.70;5.05;;;18.90;99.90;;;;;;4985055;28;20026;-63
2022/08/27 08:58:48;;;;;;;10.13;2.08;;;19.10;99.90;;;;;;4985795;28;20049;-62
2022/08/27 09:01:17;;;;;;;6.40;2.38;;;19.10;99.90;;;;;;4984697;28;20144;-64
2022/08/27 09:03:54;;;;;;;9.13;1.88;;;19.20;99.90;;;;;;4983395;28;20026;-63
2022/08/27 09:06:41;;;;;;;7.93;2.20;;;18.90;99.90;;;;;;4989254;28;20083;-64
2022/08/27 09:09:45;;;;;;;6.68;2.05;;;19.10;99.90;;;;;;4987950;28;20105;-64
2022/08/27 09:12:21;;;;;;;;;;;18.80;99.90;;;;;;4983882;28;20061;-63
2022/08/27 09:15:02;;;;;;;5.90;1.83;;;19.40;99.90;;;;;;4981877;28;19941;-62
2022/08/27 09:17:28;;;;;;;6.07;2.13;;;19.50;99.90;;;;;;4986357;28;20556;-63
2022/08/27 09:19:53;;;;;;;8.98;2.20;;;19.70;99.90;;;;;;4985937;28;20054;-62
2022/08/27 09:22:30;;;;;;;10.70;1.90;;;19.60;99.90;;;;;;4983653;28;20552;-64
2022/08/27 09:25:10;;;;;;;5.25;2.05;;;19.70;99.90;;;;;;4985247;28;20033;-62
2022/08/27 09:27:40;;;;;;;8.98;1.98;;;19.60;99.90;;;;;;4984050;28;20386;-63
2022/08/27 09:30:24;;;;;;;5.57;1.80;;;19.80;99.90;;;;;;4984709;28;20033;-62
2022/08/27 09:32:59;;;;;;;4.93;1.85;;;19.60;99.90;;;;;;4980117;28;20034;-63
2022/08/27 09:35:27;;;;;;;5.45;1.77;;;19.70;99.90;;;;;;4982182;28;20034;-63
2022/08/27 09:37:55;;;;;;;6.75;2.00;;;19.50;99.90;;;;;;4977825;28;20118;-63
2022/08/27 09:40:30;;;;;;;7.30;1.95;;;19.70;99.90;;;;;;4982980;28;20112;-63
2022/08/27 09:43:17;;;;;;;5.95;1.95;;;19.90;99.90;;;;;;4985193;28;20446;-64
2022/08/27 09:45:53;;;;;;;6.82;1.80;;;20.00;99.90;;;;;;4985045;28;20057;-63
2022/08/27 09:48:21;;;;;;;9.52;2.00;;;20.10;99.90;;;;;;4983458;28;20049;-64
2022/08/27 09:50:53;;;;;;;9.20;1.95;;;20.20;99.90;;;;;;4982091;28;20493;-62
2022/08/27 09:53:34;;;;;;;7.72;3.53;;;20.10;99.90;;;;;;4979765;28;20030;-64
2022/08/27 09:56:02;;;;;;;7.70;2.53;;;20.20;99.90;;;;;;4977944;28;20023;-64
2022/08/27 09:58:50;;;;;;;6.97;1.92;;;20.20;99.90;;;;;;4985669;28;20038;-64
2022/08/27 10:01:20;;;;;;;4.90;1.85;;;20.30;99.90;;;;;;4983586;28;20383;-63
2022/08/27 10:03:46;;;;;;;6.45;2.00;;;20.30;99.90;;;;;;4984764;28;20399;-63
2022/08/27 10:06:12;;;;;;;9.18;2.00;;;20.20;99.90;;;;;;4983491;28;20045;-63
2022/08/27 10:08:47;;;;;;;8.23;2.40;;;20.30;99.90;;;;;;4983457;28;20022;-65
2022/08/27 10:11:24;;;;;;;7.05;1.80;;;20.30;99.90;;;;;;4983595;28;20030;-64
2022/08/27 10:14:01;;;;;;;6.03;2.05;;;20.20;99.90;;;;;;4983196;28;20018;-63
2022/08/27 10:16:51;;;;;;;7.07;1.80;;;20.30;99.90;;;;;;4984376;28;20049;-64
2022/08/27 10:19:48;;;;;;;7.18;1.77;;;20.10;99.90;;;;;;4981570;28;20466;-63
2022/08/27 10:22:36;;;;;;;8.13;1.90;;;21.00;99.90;;;;;;4983421;28;20030;-62
2022/08/27 10:25:23;;;;;;;8.35;2.08;;;20.30;99.90;;;;;;4985636;28;20061;-65
2022/08/27 10:28:07;;;;;;;6.93;2.33;;;20.70;99.90;;;;;;4979727;28;20039;-63
2022/08/27 10:30:56;;;;;;;5.00;1.92;;;21.00;99.90;;;;;;4981457;28;20475;-64
2022/08/27 10:34:19;;;;;;;7.07;1.77;;;20.60;99.90;;;;;;4985488;28;20038;-63
2022/08/27 10:36:57;;;;;;;7.25;2.03;;;21.00;99.90;;;;;;4971195;28;20026;-60
2022/08/27 10:39:55;;;;;;;14.93;7.47;;;20.70;99.90;;;;;;4972886;28;20030;-61
2022/08/27 10:42:31;;;;;;;6.20;1.83;;;20.90;99.90;;;;;;4980693;28;20069;-61
2022/08/27 10:45:16;;;;;;;8.15;2.10;;;20.90;99.90;;;;;;4981108;28;20436;-62
2022/08/27 10:48:22;;;;;;;5.22;2.03;;;21.10;99.90;;;;;;4984196;28;20124;-62
2022/08/27 10:51:03;;;;;;;10.35;2.38;;;21.20;99.90;;;;;;4981097;28;20133;-62
2022/08/27 10:53:38;;;;;;;5.88;1.83;;;21.30;99.90;;;;;;4981995;28;20026;-61
2022/08/27 10:56:19;;;;;;;5.55;1.63;;;21.10;99.90;;;;;;4982754;28;20022;-63
2022/08/27 10:58:52;;;;;;;5.45;1.70;;;21.20;99.90;;;;;;4982237;28;20098;-61
2022/08/27 11:02:01;;;;;;;5.90;1.83;;;21.30;99.90;;;;;;4988697;28;20031;-63
2022/08/27 11:04:30;;;;;;;3.47;1.30;;;;;;;;;;4986654;28;20050;-60
2022/08/27 11:07:03;;;;;;;4.68;1.73;;;21.80;99.90;;;;;;4982402;28;20064;-60
2022/08/27 11:09:57;;;;;;;5.55;1.70;;;21.70;99.90;;;;;;4989280;28;20097;-62
2022/08/27 11:12:41;;;;;;;4.03;1.77;;;21.70;99.90;;;;;;4989858;28;20022;-61
2022/08/27 11:15:14;;;;;;;5.97;1.55;;;21.10;99.90;;;;;;4988861;28;20085;-62
2022/08/27 11:17:49;;;;;;;5.93;1.90;;;21.10;99.90;;;;;;4988097;28;20030;-61
2022/08/27 11:20:21;;;;;;;6.03;1.70;;;21.30;99.90;;;;;;4988593;28;20277;-61
2022/08/27 11:23:03;;;;;;;5.45;1.55;;;21.50;99.90;;;;;;4990735;28;20030;-62
2022/08/27 11:25:49;;;;;;;5.80;1.80;;;21.70;99.90;;;;;;4987752;28;20149;-62
2022/08/27 11:28:19;;;;;;;4.60;1.48;;;21.40;99.90;;;;;;4990032;28;20033;-62
2022/08/27 11:30:59;;;;;;;7.57;1.90;;;21.50;99.90;;;;;;4987907;28;20034;-63
2022/08/27 11:34:10;;;;;;;7.55;1.67;;;21.40;99.90;;;;;;4987125;28;20072;-62
2022/08/27 11:37:04;;;;;;;5.90;1.83;;;21.80;99.90;;;;;;4990006;28;20397;-59
2022/08/27 11:39:51;;;;;;;6.25;1.45;;;21.90;99.90;;;;;;4980629;28;20112;-63
2022/08/27 11:42:35;;;;;;;5.88;1.60;;;21.60;99.90;;;;;;4987631;28;20616;-60
2022/08/27 11:45:33;;;;;;;6.90;1.60;;;22.10;99.90;;;;;;4987305;28;20619;-63
2022/08/27 11:48:25;;;;;;;6.50;1.60;;;22.30;99.90;;;;;;4987064;28;20046;-59
2022/08/27 11:50:55;;;;;;;8.95;2.03;;;22.40;99.90;;;;;;4989504;28;20033;-62
2022/08/27 11:53:27;;;;;;;6.15;1.73;;;22.40;99.90;;;;;;4989537;28;20440;-61
2022/08/27 11:55:54;;;;;;;5.03;1.80;;;22.60;99.90;;;;;;4989516;28;20034;-60
2022/08/27 11:58:20;;;;;;;12.32;2.17;;;22.60;99.90;;;;;;4987798;28;20108;-62
2022/08/27 12:00:47;;;;;;;7.13;1.90;;;22.60;99.90;;;;;;4990487;28;20034;-63
2022/08/27 12:03:18;;;;;;;5.93;1.63;;;22.70;99.90;;;;;;4989949;28;20077;-64
2022/08/27 12:05:52;;;;;;;5.78;1.60;;;22.60;99.90;;;;;;4994196;28;20049;-63
2022/08/27 12:08:21;;;;;;;4.85;1.60;;;22.60;99.90;;;;;;4989840;28;20026;-63
2022/08/27 12:10:59;;;;;;;6.68;1.88;;;;;;;;;;4985148;28;20500;-62
2022/08/27 12:13:34;;;;;;;8.55;3.00;;;22.70;99.90;;;;;;4978612;28;20431;-59
2022/08/27 12:16:06;;;;;;;6.65;1.70;;;23.70;99.90;;;;;;4986200;28;20406;-60
2022/08/27 12:19:04;;;;;;;7.40;1.67;;;23.00;99.90;;;;;;4988312;28;20038;-61
2022/08/27 12:21:49;;;;;;;7.63;1.90;;;;;;;;;;4984844;28;20095;-61
2022/08/27 12:24:36;;;;;;;11.05;1.80;;;23.00;99.90;;;;;;4986051;28;20490;-60
2022/08/27 12:27:28;;;;;;;5.72;1.80;;;22.70;99.90;;;;;;4986707;28;20033;-61
2022/08/27 12:30:17;;;;;;;5.97;1.80;;;22.90;99.90;;;;;;4985010;28;20553;-61
2022/08/27 12:32:45;;;;;;;5.65;1.60;;;23.00;99.90;;;;;;4984800;28;20583;-62
2022/08/27 12:35:16;;;;;;;5.72;1.70;;;23.10;99.90;;;;;;4984417;28;20069;-61
2022/08/27 12:38:26;;;;;;;4.03;1.65;;;23.20;99.90;;;;;;4981962;28;20507;-61
2022/08/27 12:40:56;;;;;;;4.53;1.67;;;23.30;99.90;;;;;;4985534;28;20046;-61
2022/08/27 12:43:27;;;;;;;5.03;1.58;;;23.10;99.90;;;;;;4986379;28;20031;-61
2022/08/27 12:46:06;;;;;;;3.97;1.75;;;23.30;99.90;;;;;;4983423;28;20038;-60
2022/08/27 12:48:38;;;;;;;3.85;1.42;;;23.30;99.90;;;;;;4985686;28;20026;-62
2022/08/27 12:51:09;;;;;;;9.00;1.80;;;23.50;99.90;;;;;;4981624;28;20121;-61
2022/08/27 12:53:34;;;;;;;6.43;1.67;;;23.20;99.90;;;;;;4984226;28;20500;-61
2022/08/27 12:56:11;;;;;;;7.70;1.85;;;23.10;99.90;;;;;;4978647;28;20109;-61
2022/08/27 12:58:40;;;;;;;7.20;1.70;;;22.70;99.90;;;;;;4982495;28;20030;-61
2022/08/27 13:01:08;;;;;;;3.75;1.52;;;22.50;99.90;;;;;;4985564;28;20402;-61
2022/08/27 13:03:38;;;;;;;3.70;1.75;;;22.60;99.90;;;;;;4982410;28;20120;-60
2022/08/27 13:06:26;;;;;;;5.45;1.70;;;22.70;99.90;;;;;;4983612;28;20022;-63
2022/08/27 13:08:54;;;;;;;9.75;2.30;;;22.60;99.90;;;;;;4986023;28;20116;-64
2022/08/27 13:11:23;;;;;;;7.30;1.67;;;22.60;99.90;;;;;;4985396;28;20363;-64
2022/08/27 13:13:50;;;;;;;8.43;1.95;;;22.60;99.90;;;;;;4985507;28;20084;-63